Terminal Aerodrome Forecast
Issued by NWS

Home | Current Version | Previous Version | Text Only | Print | Product List | Glossary On
Versions: 1 2 3 4 5 6 7 8 9 10 11 12 13 14 15 16
000
FTUS42 KTBW 250137 AAA
TAFRSW
TAF AMD
KRSW 250137Z 2502/2524 05008KT P6SM SCT030 SCT100 BKN250
     FM250900 05005KT P6SM SCT010 BKN025
     FM251500 07009KT P6SM VCSH SCT025 BKN050
     FM251800 07008KT P6SM VCTS SCT035CB BKN050 OVC100=

USA.gov is the U.S. government's official web portal to all federal, state and local government web resources and services.